Time;durP1;ratioP1;P1;durP2;ratioP2;P2;SDS_P1;SDS_P2;PMS_P1;PMS_P2;Temp;Humidity;BMP_temperature;BMP_pressure;BME280_temperature;BME280_humidity;BME280_pressure;Samples;Min_cycle;Max_cycle;Signal;HPM_P1;HPM_P2
2023/09/04 00:01:41;;;;;;;10.23;5.65;;;;;;;9.75;71.55;97037.03;6208953;28;20061;-67
2023/09/04 00:04:45;;;;;;;8.80;6.13;;;;;;;9.75;71.72;97039.66;6208130;28;20042;-67
2023/09/04 00:07:49;;;;;;;9.40;6.10;;;;;;;9.75;71.46;97039.66;6214546;28;20050;-67
2023/09/04 00:10:53;;;;;;;9.38;6.40;;;;;;;9.76;71.64;97041.34;6211715;28;20053;-66
2023/09/04 00:13:54;;;;;;;9.05;5.90;;;;;;;9.72;71.62;97044.25;6215572;28;20054;-67
2023/09/04 00:16:58;;;;;;;9.75;6.10;;;;;;;9.71;71.69;97040.78;6211897;28;20072;-67
2023/09/04 00:20:03;;;;;;;11.23;6.63;;;;;;;9.73;71.96;97038.88;6213554;28;20207;-67
2023/09/04 00:23:10;;;;;;;9.35;5.97;;;;;;;9.83;71.61;97047.94;6211346;28;20038;-67
2023/09/04 00:26:13;;;;;;;7.05;5.13;;;;;;;9.81;71.44;97044.53;6198643;28;20042;-67
2023/09/04 00:29:22;;;;;;;8.20;5.72;;;;;;;9.81;71.67;97041.91;6216292;28;20042;-66
2023/09/04 00:32:24;;;;;;;9.70;6.28;;;;;;;9.77;71.83;97045.69;6200940;28;20418;-67
2023/09/04 00:35:25;;;;;;;11.02;6.45;;;;;;;9.71;72.03;97043.41;6211700;28;20080;-67
2023/09/04 00:38:27;;;;;;;7.18;5.65;;;;;;;9.76;72.00;97041.34;6214979;28;20137;-66
2023/09/04 00:41:31;;;;;;;8.70;5.85;;;;;;;9.84;72.01;97039.09;6212780;28;20056;-67
2023/09/04 00:44:35;;;;;;;8.52;5.82;;;;;;;9.89;71.85;97047.56;6212625;28;20046;-68
2023/09/04 00:47:44;;;;;;;9.27;5.82;;;;;;;9.97;71.69;97048.91;6211420;28;20046;-64
2023/09/04 00:50:50;;;;;;;8.90;6.13;;;;;;;10.07;71.54;97044.78;6212072;28;20489;-67
2023/09/04 00:53:57;;;;;;;10.27;6.32;;;;;;;10.04;71.63;97047.59;6216988;28;20041;-65
2023/09/04 00:57:04;;;;;;;10.55;6.75;;;;;;;10.02;71.80;97052.09;6217630;28;20041;-65
2023/09/04 01:00:12;;;;;;;9.45;6.07;;;;;;;10.05;71.81;97057.19;6209237;28;20425;-66
2023/09/04 01:03:17;;;;;;;10.40;6.03;;;;;;;10.05;72.05;97052.78;6216351;28;20674;-67
2023/09/04 01:06:22;;;;;;;10.23;6.15;;;;;;;10.03;71.92;97059.06;6216772;28;20050;-67
2023/09/04 01:09:26;;;;;;;8.98;5.53;;;;;;;10.01;72.15;97053.03;6213659;28;20037;-65
2023/09/04 01:12:36;;;;;;;;;;;;;;;9.95;72.25;97066.53;6214321;28;20050;-66
2023/09/04 01:15:37;;;;;;;12.85;8.95;;;;;;;9.95;72.15;97062.13;6213466;28;19957;-66
2023/09/04 01:18:41;;;;;;;;;;;;;;;9.87;71.96;97065.19;6215613;28;20513;-66
2023/09/04 01:21:44;;;;;;;9.73;6.23;;;;;;;9.88;72.19;97069.53;6212068;28;20584;-66
2023/09/04 01:24:48;;;;;;;11.75;6.78;;;;;;;9.83;72.52;97074.22;6214169;28;20042;-66
2023/09/04 01:27:56;;;;;;;;;;;;;;;9.74;72.60;97074.75;6219064;28;20493;-66
2023/09/04 01:31:04;;;;;;;10.55;6.72;;;;;;;9.72;72.95;97076.63;6216191;28;20419;-66
2023/09/04 01:34:19;;;;;;;8.45;6.03;;;;;;;9.81;73.36;97077.88;6191085;28;20046;-65
2023/09/04 01:37:24;;;;;;;8.48;5.63;;;;;;;9.75;73.15;97071.19;6174038;28;20293;-69
2023/09/04 01:40:30;;;;;;;9.07;6.05;;;;;;;9.96;73.21;97084.00;6170232;28;20169;-66
2023/09/04 01:43:33;;;;;;;8.05;5.60;;;;;;;10.05;72.95;97089.56;6192507;28;20038;-67
2023/09/04 01:46:37;;;;;;;;;;;;;;;10.13;72.88;97091.72;6194980;28;20042;-66
2023/09/04 01:49:38;;;;;;;8.93;5.32;;;;;;;10.23;72.43;97090.25;6187992;28;19922;-65
2023/09/04 01:52:42;;;;;;;8.63;5.40;;;;;;;10.37;72.39;97099.13;6187891;28;20053;-65
2023/09/04 01:55:46;;;;;;;10.10;6.45;;;;;;;10.52;71.90;97103.47;6185039;28;20046;-66
2023/09/04 01:58:50;;;;;;;11.32;6.97;;;;;;;10.65;71.34;97103.56;6192644;28;20050;-65
2023/09/04 02:01:56;;;;;;;10.20;6.40;;;;;;;10.74;71.24;97109.09;6176631;28;20418;-65
2023/09/04 02:05:03;;;;;;;15.00;8.23;;;;;;;10.62;70.81;97075.66;6189797;28;20042;-65
2023/09/04 02:08:07;;;;;;;10.60;7.25;;;;;;;10.78;70.70;97105.34;6189144;28;20054;-66
2023/09/04 02:11:09;;;;;;;10.10;6.40;;;;;;;10.74;70.69;97103.84;6190294;28;20569;-67
2023/09/04 02:14:12;;;;;;;14.40;6.90;;;;;;;10.70;70.71;97102.34;6179783;28;20050;-65
2023/09/04 02:17:18;;;;;;;12.30;6.78;;;;;;;10.68;70.85;97093.69;6182155;28;20050;-65
2023/09/04 02:20:25;;;;;;;10.95;7.03;;;;;;;10.65;70.77;97108.84;6191584;28;20410;-65
2023/09/04 02:23:26;;;;;;;10.73;6.95;;;;;;;10.58;70.91;97113.59;6192914;28;20153;-67
2023/09/04 02:26:30;;;;;;;11.73;6.07;;;;;;;10.50;71.12;97110.59;6190285;28;20034;-67
2023/09/04 02:29:36;;;;;;;9.57;6.25;;;;;;;10.47;71.30;97105.50;6187721;28;20049;-66
2023/09/04 02:32:43;;;;;;;12.50;8.65;;;;;;;10.47;71.40;97105.50;6200503;28;20054;-65
2023/09/04 02:35:49;;;;;;;12.02;6.95;;;;;;;10.51;71.55;97107.03;6215589;28;20042;-66
2023/09/04 02:38:55;;;;;;;12.68;7.28;;;;;;;10.29;71.24;97044.34;6214089;28;20084;-66
2023/09/04 02:42:02;;;;;;;10.30;6.57;;;;;;;10.77;71.09;97108.91;6212695;28;20034;-66
2023/09/04 02:45:04;;;;;;;9.32;6.10;;;;;;;10.87;70.76;97103.94;6211093;28;20041;-66
2023/09/04 02:48:05;;;;;;;10.57;6.82;;;;;;;11.02;70.35;97112.66;6209900;28;20159;-66
2023/09/04 02:51:07;;;;;;;11.77;6.55;;;;;;;11.13;70.20;97114.63;6206973;28;20061;-66
2023/09/04 02:54:08;;;;;;;9.75;5.55;;;;;;;11.24;69.60;97113.00;6192065;28;20038;-67
2023/09/04 02:57:12;;;;;;;9.45;5.75;;;;;;;11.26;69.42;97119.94;6210410;28;20054;-66
2023/09/04 03:00:13;;;;;;;10.38;5.75;;;;;;;11.24;69.45;97113.00;6211824;28;20042;-66
2023/09/04 03:03:19;;;;;;;9.05;6.30;;;;;;;11.36;69.59;97121.91;6212087;28;20433;-66
2023/09/04 03:06:20;;;;;;;12.52;6.00;;;;;;;11.51;68.99;97114.78;6194888;28;20136;-66
2023/09/04 03:09:24;;;;;;;12.15;6.70;;;;;;;11.70;68.87;97114.44;6212508;28;20042;-67
2023/09/04 03:12:32;;;;;;;9.80;6.18;;;;;;;11.93;68.52;97115.59;6209704;28;20046;-67
2023/09/04 03:15:36;;;;;;;14.15;6.47;;;;;;;12.24;67.81;97116.19;6205038;28;20053;-67
2023/09/04 03:18:38;;;;;;;7.80;5.75;;;;;;;12.58;66.96;97120.81;6208082;28;20069;-65
2023/09/04 03:21:39;;;;;;;10.48;5.90;;;;;;;12.90;65.86;97128.31;6211330;28;20532;-65
2023/09/04 03:24:40;;;;;;;9.35;5.85;;;;;;;13.18;65.10;97118.44;6210440;28;20053;-65
2023/09/04 03:27:41;;;;;;;9.45;5.82;;;;;;;13.48;64.13;97124.19;6210832;28;20437;-66
2023/09/04 03:30:49;;;;;;;9.55;5.68;;;;;;;13.72;63.70;97123.34;6207981;28;20497;-66
2023/09/04 03:33:55;;;;;;;9.85;6.57;;;;;;;14.07;63.00;97126.03;6209131;28;20428;-66
2023/09/04 03:36:59;;;;;;;8.18;5.25;;;;;;;14.54;61.82;97128.69;6211239;28;20045;-66
2023/09/04 03:40:22;;;;;;;;;;;;;;;15.02;61.31;97123.19;6207294;28;20050;-65
2023/09/04 03:43:28;;;;;;;7.93;5.38;;;;;;;15.10;59.88;97127.91;6209937;28;19955;-65
2023/09/04 03:46:32;;;;;;;7.85;5.55;;;;;;;15.14;59.66;97129.34;6208741;28;20050;-66
2023/09/04 03:49:36;;;;;;;8.50;5.63;;;;;;;15.37;59.15;97138.97;6212654;28;20038;-66
2023/09/04 03:52:39;;;;;;;11.32;5.97;;;;;;;15.47;58.57;97142.56;6211721;28;20046;-66
2023/09/04 03:55:40;;;;;;;10.40;5.73;;;;;;;15.58;58.11;97131.09;6212420;28;20045;-66
2023/09/04 03:58:41;;;;;;;10.35;4.93;;;;;;;15.64;57.92;97143.84;6210211;28;20061;-66
2023/09/04 04:01:48;;;;;;;7.10;4.72;;;;;;;15.66;57.55;97149.03;6188669;28;20041;-66
2023/09/04 04:04:54;;;;;;;11.35;5.40;;;;;;;15.67;57.43;97140.94;6209802;28;20046;-66
2023/09/04 04:08:00;;;;;;;8.88;5.15;;;;;;;15.68;57.41;97147.13;6208278;28;20038;-65
2023/09/04 04:11:04;;;;;;;11.35;5.07;;;;;;;15.63;57.23;97146.63;6211175;28;20068;-67
2023/09/04 04:14:07;;;;;;;9.07;5.47;;;;;;;15.74;57.07;97153.72;6212481;28;20120;-65
2023/09/04 04:17:11;;;;;;;8.23;4.72;;;;;;;16.12;56.02;97147.94;6201583;28;20045;-65
2023/09/04 04:20:17;;;;;;;7.22;4.97;;;;;;;16.70;55.06;97142.19;6211521;28;20099;-65
2023/09/04 04:23:21;;;;;;;9.70;4.78;;;;;;;17.24;53.41;97139.28;6190799;28;20052;-66
2023/09/04 04:26:27;;;;;;;6.28;4.80;;;;;;;17.62;52.41;97136.88;6208920;28;20053;-66
2023/09/04 04:29:29;;;;;;;8.30;4.80;;;;;;;18.04;51.88;97152.66;6211693;28;20128;-66
2023/09/04 04:32:32;;;;;;;4.10;3.70;;;;;;;18.01;51.21;97153.78;6208632;28;20062;-66
2023/09/04 04:35:34;;;;;;;7.40;3.90;;;;;;;17.88;50.84;97159.34;6210332;28;20444;-66
2023/09/04 04:38:38;;;;;;;7.85;4.63;;;;;;;17.67;50.72;97155.94;6205933;28;20054;-65
2023/09/04 04:41:42;;;;;;;9.30;5.18;;;;;;;17.58;50.52;97157.59;6208164;28;20041;-65
2023/09/04 04:44:43;;;;;;;6.38;4.93;;;;;;;17.39;50.65;97163.69;6209204;28;20117;-65
2023/09/04 04:47:49;;;;;;;5.40;4.32;;;;;;;17.27;50.81;97162.13;6211097;28;20493;-66
2023/09/04 04:50:50;;;;;;;6.78;4.80;;;;;;;17.29;50.81;97157.47;6207701;28;20408;-66
2023/09/04 04:53:53;;;;;;;;;;;;;;;17.53;51.43;97161.63;6207013;28;20046;-68
2023/09/04 04:57:01;;;;;;;6.80;4.03;;;;;;;17.59;50.69;97169.06;6211196;28;19921;-66
2023/09/04 05:00:10;;;;;;;6.20;4.47;;;;;;;17.80;49.96;97161.84;6209594;28;20034;-66
2023/09/04 05:03:14;;;;;;;7.57;4.72;;;;;;;18.30;49.55;97167.09;6211242;28;20050;-66
2023/09/04 05:06:16;;;;;;;5.38;4.45;;;;;;;18.66;48.47;97159.34;6214488;28;20125;-66
2023/09/04 05:09:17;;;;;;;5.88;4.53;;;;;;;18.80;48.28;97161.59;6194223;28;20034;-66
2023/09/04 05:12:23;;;;;;;7.68;4.53;;;;;;;18.80;48.03;97158.94;6208709;28;20034;-67
2023/09/04 05:15:30;;;;;;;6.80;3.95;;;;;;;19.04;47.68;97160.25;6207647;28;20062;-66
2023/09/04 05:18:34;;;;;;;6.72;4.25;;;;;;;19.82;45.77;97157.28;6211851;28;20038;-66
2023/09/04 05:21:35;;;;;;;6.88;4.28;;;;;;;20.50;44.49;97162.09;6209480;28;20042;-67
2023/09/04 05:24:38;;;;;;;6.32;4.75;;;;;;;21.94;42.04;97164.09;6210219;28;20045;-66
2023/09/04 05:27:43;;;;;;;6.95;4.57;;;;;;;22.63;40.53;97163.88;6210026;28;20049;-68
2023/09/04 05:30:50;;;;;;;4.35;3.70;;;;;;;22.95;39.40;97159.47;6207094;28;20050;-66
2023/09/04 05:33:51;;;;;;;4.78;3.70;;;;;;;22.63;39.32;97171.94;6208479;28;20053;-66
2023/09/04 05:36:56;;;;;;;5.50;3.38;;;;;;;22.54;39.59;97171.09;6209706;28;20232;-68
2023/09/04 05:39:57;;;;;;;5.32;3.60;;;;;;;23.24;38.33;97173.22;6210591;28;20038;-68
2023/09/04 05:42:59;;;;;;;6.53;3.42;;;;;;;24.68;36.25;97165.78;6213739;28;20038;-67
2023/09/04 05:46:00;;;;;;;6.97;4.10;;;;;;;25.81;34.72;97171.00;6212158;28;20042;-66
2023/09/04 05:49:02;;;;;;;5.90;4.20;;;;;;;26.20;33.58;97184.13;6196525;28;20042;-67
2023/09/04 05:52:04;;;;;;;10.30;5.23;;;;;;;26.21;33.34;97179.56;6214517;28;20199;-66
2023/09/04 05:55:08;;;;;;;8.80;5.18;;;;;;;25.44;34.83;97177.34;6218051;28;20034;-67
2023/09/04 05:58:14;;;;;;;11.07;4.93;;;;;;;25.64;34.36;97178.44;6211572;28;20053;-67
2023/09/04 06:01:16;;;;;;;9.95;5.05;;;;;;;26.55;32.56;97181.66;6210562;28;20057;-67
2023/09/04 06:04:20;;;;;;;10.88;5.40;;;;;;;25.82;34.00;97175.38;6214030;28;20042;-66
2023/09/04 06:07:21;;;;;;;10.05;5.95;;;;;;;25.09;34.86;97168.94;6213362;28;20046;-67
2023/09/04 06:10:28;;;;;;;8.13;4.97;;;;;;;24.43;35.42;97174.06;6211854;28;20410;-66
2023/09/04 06:13:33;;;;;;;8.98;4.45;;;;;;;23.28;37.32;97169.19;6216129;28;20037;-66
2023/09/04 06:16:39;;;;;;;8.43;4.68;;;;;;;22.19;39.15;97172.22;6214136;28;20559;-66
2023/09/04 06:19:43;;;;;;;10.65;5.28;;;;;;;21.81;40.16;97163.72;6214107;28;20054;-68
2023/09/04 06:22:44;;;;;;;8.13;4.47;;;;;;;22.76;38.69;97169.59;6210831;28;20050;-67
2023/09/04 06:25:46;;;;;;;7.03;4.18;;;;;;;23.95;36.92;97176.00;6210194;28;20539;-67
2023/09/04 06:28:47;;;;;;;7.43;4.32;;;;;;;24.88;34.58;97169.63;6193532;28;20065;-66
2023/09/04 06:31:51;;;;;;;4.78;3.30;;;;;;;26.43;32.70;97175.88;6207709;28;20137;-67
2023/09/04 06:34:59;;;;;;;5.15;3.42;;;;;;;26.72;31.27;97171.41;6211762;28;20046;-68
2023/09/04 06:38:03;;;;;;;6.88;3.70;;;;;;;25.45;32.75;97169.09;6207651;28;20041;-67
2023/09/04 06:41:05;;;;;;;5.32;3.47;;;;;;;23.75;34.82;97165.69;6214065;28;20037;-65
2023/09/04 06:44:06;;;;;;;5.32;3.63;;;;;;;22.70;36.48;97164.88;6200523;28;20046;-66
2023/09/04 06:47:10;;;;;;;4.68;3.33;;;;;;;22.04;37.74;97165.78;6213813;28;20117;-66
2023/09/04 06:50:17;;;;;;;4.32;3.53;;;;;;;21.67;37.89;97164.34;6214300;28;20128;-67
2023/09/04 06:53:19;;;;;;;8.07;3.95;;;;;;;21.65;38.48;97158.31;6211131;28;20053;-67
2023/09/04 06:56:25;;;;;;;5.07;3.88;;;;;;;22.38;37.22;97166.53;6203646;28;20046;-65
2023/09/04 06:59:29;;;;;;;6.22;4.20;;;;;;;23.70;35.19;97162.69;6210603;28;20432;-64
2023/09/04 07:02:30;;;;;;;5.68;4.10;;;;;;;25.83;31.81;97166.28;6206523;28;20042;-64
2023/09/04 07:05:38;;;;;;;5.63;3.58;;;;;;;28.08;28.73;97182.72;6211224;28;21869;-63
2023/09/04 07:08:45;;;;;;;5.03;3.47;;;;;;;28.24;27.97;97177.97;6214740;28;20790;-65
2023/09/04 07:11:51;;;;;;;4.53;3.63;;;;;;;27.63;28.66;97170.59;6213767;28;20413;-65
2023/09/04 07:14:58;;;;;;;6.97;3.50;;;;;;;26.99;29.48;97174.34;6211781;28;20046;-66
2023/09/04 07:18:02;;;;;;;5.35;3.10;;;;;;;26.78;30.20;97169.78;6213387;28;20180;-63
2023/09/04 07:21:05;;;;;;;6.75;3.72;;;;;;;26.65;30.46;97160.53;6212266;28;20065;-64
2023/09/04 07:24:08;;;;;;;6.13;3.97;;;;;;;26.09;30.64;97168.44;6210263;28;20069;-73
2023/09/04 07:27:10;;;;;;;4.80;3.88;;;;;;;25.57;31.83;97164.06;6211801;28;20046;-65
2023/09/04 07:30:12;;;;;;;5.45;3.72;;;;;;;25.94;31.31;97173.88;6208121;28;20045;-62
2023/09/04 07:33:13;;;;;;;6.60;3.97;;;;;;;26.76;30.48;97180.78;6208407;28;20056;-66
2023/09/04 07:36:17;;;;;;;9.70;4.68;;;;;;;27.33;29.44;97178.16;6204994;28;20049;-62
2023/09/04 07:39:18;;;;;;;6.07;4.05;;;;;;;27.34;29.01;97180.63;6207366;28;20227;-69
2023/09/04 07:42:22;;;;;;;6.60;4.03;;;;;;;27.04;29.42;97175.41;6187192;28;20050;-69
2023/09/04 07:45:26;;;;;;;6.05;4.40;;;;;;;26.91;29.92;97179.88;6204057;28;20417;-65
2023/09/04 07:48:34;;;;;;;9.10;5.10;;;;;;;27.46;29.18;97173.66;6205659;28;20128;-64
2023/09/04 07:51:39;;;;;;;10.25;4.47;;;;;;;30.63;25.90;97174.88;6209424;28;20556;-63
2023/09/04 07:54:44;;;;;;;5.15;3.63;;;;;;;34.39;21.37;97183.72;6208747;28;20055;-68
2023/09/04 07:57:49;;;;;;;4.70;3.22;;;;;;;35.83;20.02;97181.47;6206441;28;20041;-67
2023/09/04 08:00:54;;;;;;;5.43;3.85;;;;;;;35.12;20.31;97179.31;6207916;28;20030;-71
2023/09/04 08:03:57;;;;;;;10.73;4.13;;;;;;;33.29;21.82;97174.50;6210283;28;20535;-65
2023/09/04 08:07:05;;;;;;;7.60;4.85;;;;;;;31.53;24.08;97169.16;6205378;28;20069;-65
2023/09/04 08:10:09;;;;;;;8.73;5.60;;;;;;;29.91;25.76;97172.31;6206521;28;20087;-66
2023/09/04 08:13:17;;;;;;;10.07;5.95;;;;;;;28.12;27.45;97178.56;6212906;28;20042;-66
2023/09/04 08:16:22;;;;;;;9.52;5.90;;;;;;;26.34;29.62;97166.25;6210061;28;20128;-66
2023/09/04 08:19:23;;;;;;;6.25;5.05;;;;;;;25.25;31.06;97162.56;6207348;28;20046;-72
2023/09/04 08:22:30;;;;;;;6.70;4.55;;;;;;;24.49;32.09;97162.56;6206809;28;20491;-76
2023/09/04 08:25:39;;;;;;;6.53;5.10;;;;;;;23.99;32.61;97166.56;6205536;28;20037;-71
2023/09/04 08:28:42;;;;;;;5.07;4.57;;;;;;;23.78;33.04;97171.69;6212804;28;20160;-65
2023/09/04 08:31:48;;;;;;;5.97;4.78;;;;;;;23.75;33.52;97175.59;6205119;28;20061;-65
2023/09/04 08:34:50;;;;;;;7.28;4.95;;;;;;;23.70;33.38;97178.81;6203572;28;20133;-66
2023/09/04 08:37:53;;;;;;;5.70;4.43;;;;;;;24.11;32.74;97181.25;6205948;28;20046;-67
2023/09/04 08:40:59;;;;;;;5.88;4.88;;;;;;;24.78;31.56;97187.91;6204712;28;20045;-65
2023/09/04 08:44:03;;;;;;;8.07;5.32;;;;;;;25.77;30.71;97193.97;6199850;28;20755;-65
2023/09/04 08:47:06;;;;;;;5.82;4.80;;;;;;;26.41;29.84;97191.44;6206940;28;20501;-70
2023/09/04 08:50:08;;;;;;;7.35;4.65;;;;;;;26.42;29.42;97190.41;6205113;28;20038;-68
2023/09/04 08:53:16;;;;;;;6.15;4.55;;;;;;;26.58;29.54;97192.06;6203504;28;20849;-66
2023/09/04 08:56:20;;;;;;;8.05;5.22;;;;;;;26.75;28.77;97194.47;6205836;28;20038;-67
2023/09/04 08:59:24;;;;;;;7.25;5.03;;;;;;;26.43;29.04;97197.47;6206751;28;20042;-67
2023/09/04 09:02:26;;;;;;;7.65;5.70;;;;;;;25.93;29.69;97193.78;6208628;28;20119;-67
2023/09/04 09:05:29;;;;;;;8.48;5.88;;;;;;;25.53;30.45;97195.94;6190710;28;20057;-67
2023/09/04 09:08:32;;;;;;;;;;;;;;;25.29;31.22;97190.81;6211450;28;20040;-68
2023/09/04 09:11:33;;;;;;;10.38;5.30;;;;;;;24.36;32.04;97199.94;6212105;28;19928;-67
2023/09/04 09:14:40;;;;;;;6.60;4.88;;;;;;;23.62;33.34;97202.97;6209446;28;20037;-67
2023/09/04 09:17:57;;;;;;;8.20;5.20;;;;;;;23.03;34.63;97191.72;6212319;28;20045;-68
2023/09/04 09:20:59;;;;;;;6.30;5.15;;;;;;;22.86;34.61;97197.06;6209408;28;20045;-68
2023/09/04 09:24:08;;;;;;;9.95;5.18;;;;;;;23.07;34.61;97198.41;6214145;28;20076;-69
2023/09/04 09:27:10;;;;;;;7.93;5.40;;;;;;;23.54;33.85;97194.94;6215453;28;20042;-69
2023/09/04 09:30:11;;;;;;;13.73;7.90;;;;;;;24.05;32.77;97198.09;6212346;28;20041;-68
2023/09/04 09:33:19;;;;;;;9.55;6.65;;;;;;;24.55;32.23;97204.91;6212639;28;20056;-67
2023/09/04 09:36:20;;;;;;;9.18;6.55;;;;;;;25.49;31.34;97202.69;6195674;28;20908;-75
2023/09/04 09:39:21;;;;;;;8.00;5.47;;;;;;;28.95;27.12;97205.38;6211117;28;20046;-68
2023/09/04 09:42:24;;;;;;;6.38;4.60;;;;;;;31.55;23.72;97218.72;6214762;28;20049;-66
2023/09/04 09:45:38;;;;;;;8.48;4.65;;;;;;;32.51;22.49;97219.94;6209821;28;20582;-78
2023/09/04 09:48:45;;;;;;;6.70;4.50;;;;;;;34.34;20.39;97232.78;6212832;28;20042;-73
2023/09/04 09:51:53;;;;;;;7.07;4.13;;;;;;;34.51;20.15;97227.38;6214741;28;20357;-75
2023/09/04 09:55:00;;;;;;;9.68;6.80;;;;;;;36.71;17.77;97233.50;6217608;28;20693;-75
2023/09/04 09:58:08;;;;;;;5.85;4.25;;;;;;;37.75;17.22;97229.50;6218833;28;20038;-75
2023/09/04 10:01:17;;;;;;;12.98;4.57;;;;;;;36.33;17.99;97227.06;6217664;28;20046;-74
2023/09/04 10:04:22;;;;;;;5.05;3.72;;;;;;;34.07;19.86;97221.59;6218227;28;20077;-74
2023/09/04 10:07:32;;;;;;;6.20;4.40;;;;;;;31.64;21.30;97214.63;6213118;28;20429;-74
2023/09/04 10:10:39;;;;;;;6.07;4.53;;;;;;;29.47;24.21;97203.72;6213176;28;20429;-74
2023/09/04 10:14:11;;;;;;;7.05;4.90;;;;;;;28.57;25.80;97205.97;6209052;28;20149;-74
2023/09/04 10:17:19;;;;;;;9.40;5.43;;;;;;;27.97;26.37;97207.63;6214182;28;22085;-74
2023/09/04 10:20:23;;;;;;;8.18;5.00;;;;;;;27.50;26.76;97206.53;6212398;28;20480;-74
2023/09/04 10:23:35;;;;;;;5.90;4.05;;;;;;;27.08;27.10;97200.97;6213596;28;20042;-74
2023/09/04 10:26:58;;;;;;;5.70;4.10;;;;;;;26.88;27.30;97198.13;6215923;28;20132;-75
2023/09/04 10:30:05;;;;;;;8.05;4.40;;;;;;;26.58;27.59;97196.59;6212707;28;20053;-74
2023/09/04 10:33:08;;;;;;;8.20;4.38;;;;;;;26.66;27.43;97199.16;6210934;28;20727;-73
2023/09/04 10:36:12;;;;;;;9.25;5.03;;;;;;;26.72;27.05;97201.09;6212907;28;20128;-74
2023/09/04 10:39:20;;;;;;;6.22;4.25;;;;;;;27.39;26.58;97202.50;6213812;28;20054;-75
2023/09/04 10:42:23;;;;;;;5.28;4.60;;;;;;;28.17;25.68;97205.00;6215337;28;20453;-74
2023/09/04 10:45:30;;;;;;;7.53;4.78;;;;;;;28.13;25.82;97207.25;6218067;28;20053;-76
2023/09/04 10:48:49;;;;;;;5.70;4.65;;;;;;;27.51;25.98;97202.78;6220237;28;20053;-74
2023/09/04 10:51:53;;;;;;;6.95;4.30;;;;;;;27.07;27.07;97195.78;6208650;28;20038;-74
2023/09/04 10:55:12;;;;;;;13.27;4.63;;;;;;;28.83;25.47;97204.34;6193603;28;20595;-76
2023/09/04 10:58:18;;;;;;;7.82;4.50;;;;;;;29.24;24.37;97203.31;6214914;28;20046;-74
2023/09/04 11:01:46;;;;;;;6.50;4.28;;;;;;;28.32;25.52;97210.25;6225222;28;20038;-75
2023/09/04 11:04:52;;;;;;;7.43;4.28;;;;;;;27.03;26.57;97205.31;6226026;28;20038;-73
2023/09/04 11:08:25;;;;;;;7.30;4.55;;;;;;;26.07;27.97;97199.31;6228497;28;20042;-72
2023/09/04 11:11:32;;;;;;;7.80;4.20;;;;;;;25.17;29.20;97206.59;6216529;28;20046;-74
2023/09/04 11:14:45;;;;;;;5.00;4.50;;;;;;;24.36;30.13;97205.31;6212209;28;20563;-73
2023/09/04 11:17:49;;;;;;;6.15;3.67;;;;;;;23.74;30.98;97206.16;6216461;28;20049;-74
2023/09/04 11:20:54;;;;;;;8.32;4.35;;;;;;;23.17;31.82;97206.28;6211270;28;20042;-74
2023/09/04 11:23:59;;;;;;;9.13;4.13;;;;;;;22.58;32.81;97201.09;6197268;28;20528;-75
2023/09/04 11:27:03;;;;;;;8.13;3.85;;;;;;;22.10;33.57;97199.97;6210690;28;20640;-75
2023/09/04 11:30:05;;;;;;;5.55;4.22;;;;;;;21.70;34.13;97198.84;6210389;28;20050;-74
2023/09/04 11:33:13;;;;;;;6.88;4.50;;;;;;;21.36;34.74;97204.16;6217129;28;20147;-74
2023/09/04 11:36:14;;;;;;;6.05;4.60;;;;;;;20.93;35.36;97206.75;6214680;28;20124;-75
2023/09/04 11:39:19;;;;;;;7.28;4.65;;;;;;;20.52;36.39;97219.75;6210729;28;20120;-75
2023/09/04 11:42:27;;;;;;;8.40;4.82;;;;;;;20.28;36.82;97206.16;6209623;28;20431;-74
2023/09/04 11:45:34;;;;;;;8.25;4.57;;;;;;;20.18;37.09;97208.88;6210164;28;20136;-75
2023/09/04 11:48:35;;;;;;;6.30;4.35;;;;;;;20.35;37.47;97207.22;6213959;28;20180;-74
2023/09/04 11:51:37;;;;;;;5.10;4.00;;;;;;;20.87;36.27;97199.34;6213893;28;20736;-74
2023/09/04 11:54:44;;;;;;;6.10;4.05;;;;;;;22.06;34.47;97204.00;6212309;28;20045;-73
2023/09/04 11:57:49;;;;;;;6.43;4.10;;;;;;;23.74;31.99;97206.97;6209288;28;20041;-74
2023/09/04 12:00:56;;;;;;;7.95;4.50;;;;;;;24.48;30.43;97213.84;6209451;28;20093;-75
2023/09/04 12:04:02;;;;;;;7.80;4.60;;;;;;;24.35;30.55;97201.81;6209263;28;20412;-74
2023/09/04 12:07:07;;;;;;;6.28;3.80;;;;;;;24.05;31.05;97203.47;6206885;28;20064;-74
2023/09/04 12:10:13;;;;;;;7.35;4.07;;;;;;;23.68;31.22;97207.66;6214029;28;20037;-74
2023/09/04 12:13:16;;;;;;;6.05;3.95;;;;;;;23.30;32.03;97203.94;6197482;28;20527;-74
2023/09/04 12:16:20;;;;;;;12.25;4.63;;;;;;;23.77;31.38;97211.19;6204790;28;20050;-74
2023/09/04 12:19:30;;;;;;;11.73;7.93;;;;;;;25.12;29.63;97208.13;6213638;28;20421;-74
2023/09/04 12:22:37;;;;;;;7.93;5.82;;;;;;;26.21;28.13;97211.94;6209921;28;20053;-73
2023/09/04 12:25:41;;;;;;;6.90;4.10;;;;;;;27.01;27.34;97212.78;6210519;28;20077;-75
2023/09/04 12:28:45;;;;;;;6.03;3.47;;;;;;;27.47;26.55;97201.50;6210589;28;20050;-74
2023/09/04 12:31:51;;;;;;;5.97;3.75;;;;;;;27.49;26.63;97210.25;6212309;28;20054;-74
2023/09/04 12:35:08;;;;;;;7.47;4.03;;;;;;;27.36;26.55;97210.16;6211452;28;20050;-74
2023/09/04 12:38:12;;;;;;;6.43;4.07;;;;;;;26.49;27.48;97213.91;6207019;28;20042;-75
2023/09/04 12:41:14;;;;;;;8.70;4.43;;;;;;;25.59;28.53;97206.97;6209951;28;20050;-74
2023/09/04 12:44:20;;;;;;;8.23;4.93;;;;;;;24.64;30.32;97206.50;6210290;28;20042;-74
2023/09/04 12:47:25;;;;;;;7.95;4.80;;;;;;;23.74;31.30;97206.97;6208307;28;20767;-74
2023/09/04 12:50:27;;;;;;;9.98;4.65;;;;;;;22.94;32.61;97214.16;6212497;28;20052;-74
2023/09/04 12:53:28;;;;;;;7.47;4.60;;;;;;;22.31;33.63;97205.75;6213489;28;20061;-74
2023/09/04 12:56:34;;;;;;;6.82;4.47;;;;;;;21.91;34.31;97212.66;6217069;28;20767;-73
2023/09/04 12:59:40;;;;;;;10.68;5.50;;;;;;;21.63;34.82;97203.19;6217987;28;20128;-73
2023/09/04 13:02:47;;;;;;;9.80;5.57;;;;;;;21.40;35.33;97203.75;6215713;28;20053;-73
2023/09/04 13:05:49;;;;;;;9.35;5.03;;;;;;;21.19;35.82;97200.56;6214312;28;20421;-73
2023/09/04 13:08:54;;;;;;;8.30;5.68;;;;;;;20.95;36.39;97215.47;6217834;28;20091;-74
2023/09/04 13:12:03;;;;;;;8.50;5.78;;;;;;;20.76;36.60;97210.28;6213416;28;20046;-74
2023/09/04 13:15:07;;;;;;;7.15;5.10;;;;;;;20.66;36.78;97210.38;6216089;28;20042;-72
2023/09/04 13:18:11;;;;;;;6.43;4.68;;;;;;;20.50;37.01;97205.69;6217508;28;20081;-73
2023/09/04 13:21:18;;;;;;;8.38;5.22;;;;;;;20.09;37.73;97191.09;6218106;28;20042;-73
2023/09/04 13:24:24;;;;;;;8.60;5.78;;;;;;;19.82;38.37;97211.50;6216860;28;20041;-73
2023/09/04 13:27:27;;;;;;;8.15;5.75;;;;;;;19.39;39.20;97204.94;6215438;28;20054;-73
2023/09/04 13:30:34;;;;;;;9.35;6.07;;;;;;;19.05;39.77;97201.94;6217476;28;20421;-74
2023/09/04 13:33:44;;;;;;;8.43;5.95;;;;;;;18.74;40.88;97199.50;6210142;28;20069;-74
2023/09/04 13:36:52;;;;;;;9.23;5.72;;;;;;;18.45;41.34;97195.97;6197557;28;20045;-74
2023/09/04 13:39:56;;;;;;;9.25;5.78;;;;;;;18.29;41.55;97194.72;6211799;28;20052;-76
2023/09/04 13:43:03;;;;;;;11.43;6.47;;;;;;;18.29;41.96;97205.38;6214175;28;20454;-75
2023/09/04 13:46:10;;;;;;;12.85;5.93;;;;;;;18.21;42.25;97197.22;6218666;28;20038;-76
2023/09/04 13:49:14;;;;;;;12.07;6.15;;;;;;;18.28;42.15;97203.66;6209002;28;20050;-73
2023/09/04 13:52:21;;;;;;;9.75;5.50;;;;;;;18.30;41.86;97207.03;6209475;28;20046;-74
2023/09/04 13:55:26;;;;;;;12.10;6.70;;;;;;;18.18;42.45;97192.19;6210851;28;20503;-74
2023/09/04 13:58:32;;;;;;;14.13;8.45;;;;;;;18.11;42.87;97212.34;6209186;28;20047;-74
2023/09/04 14:01:42;;;;;;;20.17;10.85;;;;;;;18.05;43.64;97218.22;6216660;28;21970;-74
2023/09/04 14:04:46;;;;;;;22.20;11.48;;;;;;;17.87;43.66;97212.75;6213582;28;20077;-74
2023/09/04 14:07:53;;;;;;;16.10;9.98;;;;;;;17.73;44.12;97219.25;6209224;28;20441;-74
2023/09/04 14:10:58;;;;;;;18.15;9.88;;;;;;;17.60;44.22;97213.31;6211144;28;20043;-75
2023/09/04 14:14:02;;;;;;;15.20;9.65;;;;;;;17.43;44.99;97212.97;6219554;28;20061;-75
2023/09/04 14:17:06;;;;;;;15.40;9.60;;;;;;;17.27;45.64;97212.63;6209779;28;20053;-73
2023/09/04 14:20:10;;;;;;;14.80;8.93;;;;;;;17.09;45.80;97212.38;6213566;28;20429;-75
2023/09/04 14:23:16;;;;;;;13.40;8.93;;;;;;;16.85;46.31;97204.72;6215441;28;20196;-73
2023/09/04 14:26:20;;;;;;;17.05;10.32;;;;;;;16.68;46.78;97219.38;6212993;28;20084;-73
2023/09/04 14:29:28;;;;;;;19.67;11.30;;;;;;;16.52;47.34;97222.47;6213903;28;20053;-74
2023/09/04 14:32:29;;;;;;;13.63;8.63;;;;;;;16.38;47.55;97225.44;6191995;28;20053;-75